sensor_id;sensor_type;location;lat;lon;timestamp;P1;durP1;ratioP1;P2;durP2;ratioP2
52316;SDS011;38725;41.994;21.458;2022-07-23T00:02:23;13.00;;;5.88;;
52316;SDS011;38725;41.994;21.458;2022-07-23T00:04:49;10.23;;;6.10;;
52316;SDS011;38725;41.994;21.458;2022-07-23T00:07:16;14.35;;;7.35;;
52316;SDS011;38725;41.994;21.458;2022-07-23T00:09:42;16.65;;;6.72;;
52316;SDS011;38725;41.994;21.458;2022-07-23T00:12:08;12.05;;;6.47;;
52316;SDS011;38725;41.994;21.458;2022-07-23T00:14:34;12.52;;;6.28;;
52316;SDS011;38725;41.994;21.458;2022-07-23T00:17:00;10.85;;;6.10;;
52316;SDS011;38725;41.994;21.458;2022-07-23T00:19:26;17.35;;;5.93;;
52316;SDS011;38725;41.994;21.458;2022-07-23T00:21:54;15.75;;;5.85;;
52316;SDS011;38725;41.994;21.458;2022-07-23T00:24:20;10.00;;;5.25;;
52316;SDS011;38725;41.994;21.458;2022-07-23T00:26:46;10.35;;;5.32;;
52316;SDS011;38725;41.994;21.458;2022-07-23T00:29:12;10.25;;;5.43;;
52316;SDS011;38725;41.994;21.458;2022-07-23T00:31:38;8.85;;;5.47;;
52316;SDS011;38725;41.994;21.458;2022-07-23T00:34:05;10.50;;;5.45;;
52316;SDS011;38725;41.994;21.458;2022-07-23T00:36:31;12.52;;;5.35;;
52316;SDS011;38725;41.994;21.458;2022-07-23T00:38:57;11.40;;;5.15;;
52316;SDS011;38725;41.994;21.458;2022-07-23T00:41:24;8.30;;;5.53;;
52316;SDS011;38725;41.994;21.458;2022-07-23T00:43:50;13.07;;;5.55;;
52316;SDS011;38725;41.994;21.458;2022-07-23T00:46:20;8.05;;;5.80;;
52316;SDS011;38725;41.994;21.458;2022-07-23T00:48:46;8.35;;;5.70;;
52316;SDS011;38725;41.994;21.458;2022-07-23T00:51:12;10.15;;;5.78;;
52316;SDS011;38725;41.994;21.458;2022-07-23T00:53:38;11.77;;;5.78;;
52316;SDS011;38725;41.994;21.458;2022-07-23T00:56:05;11.05;;;6.05;;
52316;SDS011;38725;41.994;21.458;2022-07-23T00:58:31;10.25;;;5.75;;
52316;SDS011;38725;41.994;21.458;2022-07-23T01:00:58;12.30;;;5.80;;
52316;SDS011;38725;41.994;21.458;2022-07-23T01:03:24;8.77;;;5.75;;
52316;SDS011;38725;41.994;21.458;2022-07-23T01:05:51;10.43;;;5.40;;
52316;SDS011;38725;41.994;21.458;2022-07-23T01:08:17;9.25;;;6.10;;
52316;SDS011;38725;41.994;21.458;2022-07-23T01:10:43;11.90;;;5.63;;
52316;SDS011;38725;41.994;21.458;2022-07-23T01:13:10;8.93;;;4.97;;
52316;SDS011;38725;41.994;21.458;2022-07-23T01:15:37;7.60;;;5.85;;
52316;SDS011;38725;41.994;21.458;2022-07-23T01:18:03;8.23;;;5.78;;
52316;SDS011;38725;41.994;21.458;2022-07-23T01:20:30;9.70;;;5.78;;
52316;SDS011;38725;41.994;21.458;2022-07-23T01:22:57;13.48;;;5.93;;
52316;SDS011;38725;41.994;21.458;2022-07-23T01:25:24;10.13;;;5.90;;
52316;SDS011;38725;41.994;21.458;2022-07-23T01:27:51;10.50;;;5.85;;
52316;SDS011;38725;41.994;21.458;2022-07-23T01:30:17;10.68;;;6.13;;
52316;SDS011;38725;41.994;21.458;2022-07-23T01:32:44;11.35;;;6.53;;
52316;SDS011;38725;41.994;21.458;2022-07-23T01:35:10;10.38;;;5.55;;
52316;SDS011;38725;41.994;21.458;2022-07-23T01:37:36;8.93;;;6.20;;
52316;SDS011;38725;41.994;21.458;2022-07-23T01:40:03;14.45;;;6.00;;
52316;SDS011;38725;41.994;21.458;2022-07-23T01:42:30;8.77;;;5.80;;
52316;SDS011;38725;41.994;21.458;2022-07-23T01:44:56;9.80;;;5.93;;
52316;SDS011;38725;41.994;21.458;2022-07-23T01:47:22;8.50;;;5.35;;
52316;SDS011;38725;41.994;21.458;2022-07-23T01:49:48;10.50;;;5.75;;
52316;SDS011;38725;41.994;21.458;2022-07-23T01:52:14;10.07;;;5.32;;
52316;SDS011;38725;41.994;21.458;2022-07-23T01:54:41;15.82;;;6.20;;
52316;SDS011;38725;41.994;21.458;2022-07-23T01:57:08;9.05;;;5.25;;
52316;SDS011;38725;41.994;21.458;2022-07-23T01:59:34;11.43;;;5.72;;
52316;SDS011;38725;41.994;21.458;2022-07-23T02:02:00;20.75;;;6.13;;
52316;SDS011;38725;41.994;21.458;2022-07-23T02:04:28;13.68;;;5.55;;
52316;SDS011;38725;41.994;21.458;2022-07-23T02:06:54;9.50;;;5.32;;
52316;SDS011;38725;41.994;21.458;2022-07-23T02:09:21;10.90;;;5.43;;
52316;SDS011;38725;41.994;21.458;2022-07-23T02:11:47;12.10;;;5.13;;
52316;SDS011;38725;41.994;21.458;2022-07-23T02:14:14;10.00;;;5.30;;
52316;SDS011;38725;41.994;21.458;2022-07-23T02:16:40;11.23;;;5.47;;
52316;SDS011;38725;41.994;21.458;2022-07-23T02:19:06;8.52;;;5.35;;
52316;SDS011;38725;41.994;21.458;2022-07-23T02:21:32;9.48;;;5.45;;
52316;SDS011;38725;41.994;21.458;2022-07-23T02:23:58;11.02;;;6.07;;
52316;SDS011;38725;41.994;21.458;2022-07-23T02:26:24;10.63;;;5.22;;
52316;SDS011;38725;41.994;21.458;2022-07-23T02:28:50;12.55;;;5.85;;
52316;SDS011;38725;41.994;21.458;2022-07-23T02:31:18;13.32;;;5.60;;
52316;SDS011;38725;41.994;21.458;2022-07-23T02:33:44;8.32;;;5.90;;
52316;SDS011;38725;41.994;21.458;2022-07-23T02:36:10;9.05;;;5.47;;
52316;SDS011;38725;41.994;21.458;2022-07-23T02:38:36;11.07;;;5.53;;
52316;SDS011;38725;41.994;21.458;2022-07-23T02:41:02;10.82;;;5.22;;
52316;SDS011;38725;41.994;21.458;2022-07-23T02:43:28;9.20;;;5.68;;
52316;SDS011;38725;41.994;21.458;2022-07-23T02:45:55;11.18;;;5.22;;
52316;SDS011;38725;41.994;21.458;2022-07-23T02:48:21;7.55;;;5.20;;
52316;SDS011;38725;41.994;21.458;2022-07-23T02:50:47;15.73;;;5.85;;
52316;SDS011;38725;41.994;21.458;2022-07-23T02:53:13;10.55;;;5.72;;
52316;SDS011;38725;41.994;21.458;2022-07-23T02:55:39;7.93;;;5.75;;
52316;SDS011;38725;41.994;21.458;2022-07-23T02:58:05;10.45;;;5.35;;
52316;SDS011;38725;41.994;21.458;2022-07-23T03:00:32;11.93;;;5.60;;
52316;SDS011;38725;41.994;21.458;2022-07-23T03:02:58;14.07;;;5.50;;
52316;SDS011;38725;41.994;21.458;2022-07-23T03:05:24;17.48;;;6.22;;
52316;SDS011;38725;41.994;21.458;2022-07-23T03:07:50;8.90;;;5.75;;
52316;SDS011;38725;41.994;21.458;2022-07-23T03:10:16;10.88;;;5.45;;
52316;SDS011;38725;41.994;21.458;2022-07-23T03:12:42;10.18;;;5.15;;
52316;SDS011;38725;41.994;21.458;2022-07-23T03:15:09;10.27;;;4.72;;
52316;SDS011;38725;41.994;21.458;2022-07-23T03:17:35;9.20;;;5.35;;
52316;SDS011;38725;41.994;21.458;2022-07-23T03:20:01;18.20;;;5.70;;
52316;SDS011;38725;41.994;21.458;2022-07-23T03:22:27;12.35;;;5.20;;
52316;SDS011;38725;41.994;21.458;2022-07-23T03:24:53;9.95;;;5.63;;
52316;SDS011;38725;41.994;21.458;2022-07-23T03:27:20;12.90;;;5.25;;
52316;SDS011;38725;41.994;21.458;2022-07-23T03:29:46;9.77;;;5.30;;
52316;SDS011;38725;41.994;21.458;2022-07-23T03:32:12;10.75;;;5.30;;
52316;SDS011;38725;41.994;21.458;2022-07-23T03:34:38;8.63;;;5.60;;
52316;SDS011;38725;41.994;21.458;2022-07-23T03:37:04;9.80;;;5.40;;
52316;SDS011;38725;41.994;21.458;2022-07-23T03:39:30;9.93;;;5.47;;
52316;SDS011;38725;41.994;21.458;2022-07-23T03:41:57;15.40;;;6.80;;
52316;SDS011;38725;41.994;21.458;2022-07-23T03:44:23;15.85;;;6.53;;
52316;SDS011;38725;41.994;21.458;2022-07-23T03:46:49;9.75;;;6.50;;
52316;SDS011;38725;41.994;21.458;2022-07-23T03:49:15;12.63;;;5.75;;
52316;SDS011;38725;41.994;21.458;2022-07-23T03:51:42;10.55;;;6.30;;
52316;SDS011;38725;41.994;21.458;2022-07-23T03:54:08;15.30;;;6.57;;
52316;SDS011;38725;41.994;21.458;2022-07-23T03:56:34;13.88;;;7.10;;
52316;SDS011;38725;41.994;21.458;2022-07-23T03:59:00;14.40;;;6.55;;
52316;SDS011;38725;41.994;21.458;2022-07-23T04:01:26;14.55;;;6.28;;
52316;SDS011;38725;41.994;21.458;2022-07-23T04:03:53;14.68;;;6.13;;
52316;SDS011;38725;41.994;21.458;2022-07-23T04:06:19;15.77;;;6.38;;
52316;SDS011;38725;41.994;21.458;2022-07-23T04:08:45;10.60;;;6.55;;
52316;SDS011;38725;41.994;21.458;2022-07-23T04:11:11;11.75;;;6.60;;
52316;SDS011;38725;41.994;21.458;2022-07-23T04:13:37;12.73;;;6.63;;
52316;SDS011;38725;41.994;21.458;2022-07-23T04:16:03;9.45;;;6.18;;
52316;SDS011;38725;41.994;21.458;2022-07-23T04:18:30;13.13;;;6.82;;
52316;SDS011;38725;41.994;21.458;2022-07-23T04:20:56;13.27;;;6.47;;
52316;SDS011;38725;41.994;21.458;2022-07-23T04:23:22;9.90;;;5.80;;
52316;SDS011;38725;41.994;21.458;2022-07-23T04:25:48;10.20;;;5.85;;
52316;SDS011;38725;41.994;21.458;2022-07-23T04:28:14;7.65;;;5.28;;
52316;SDS011;38725;41.994;21.458;2022-07-23T04:30:41;9.68;;;5.38;;
52316;SDS011;38725;41.994;21.458;2022-07-23T04:33:07;19.05;;;6.47;;
52316;SDS011;38725;41.994;21.458;2022-07-23T04:35:33;10.95;;;5.18;;
52316;SDS011;38725;41.994;21.458;2022-07-23T04:38:00;10.45;;;5.70;;
52316;SDS011;38725;41.994;21.458;2022-07-23T04:40:26;10.15;;;5.43;;
52316;SDS011;38725;41.994;21.458;2022-07-23T04:42:53;7.65;;;5.63;;
52316;SDS011;38725;41.994;21.458;2022-07-23T04:45:19;10.45;;;5.55;;
52316;SDS011;38725;41.994;21.458;2022-07-23T04:47:45;14.90;;;6.15;;
52316;SDS011;38725;41.994;21.458;2022-07-23T04:50:12;11.68;;;6.75;;
52316;SDS011;38725;41.994;21.458;2022-07-23T04:52:38;11.10;;;6.07;;
52316;SDS011;38725;41.994;21.458;2022-07-23T04:55:04;13.45;;;5.82;;
52316;SDS011;38725;41.994;21.458;2022-07-23T04:57:30;10.57;;;6.25;;
52316;SDS011;38725;41.994;21.458;2022-07-23T04:59:56;9.52;;;5.72;;
52316;SDS011;38725;41.994;21.458;2022-07-23T05:02:22;12.60;;;5.95;;
52316;SDS011;38725;41.994;21.458;2022-07-23T05:04:49;27.25;;;7.05;;
52316;SDS011;38725;41.994;21.458;2022-07-23T05:07:15;11.77;;;5.30;;
52316;SDS011;38725;41.994;21.458;2022-07-23T05:09:41;12.07;;;5.28;;
52316;SDS011;38725;41.994;21.458;2022-07-23T05:12:08;12.57;;;5.47;;
52316;SDS011;38725;41.994;21.458;2022-07-23T05:14:34;10.73;;;5.20;;
52316;SDS011;38725;41.994;21.458;2022-07-23T05:17:00;8.18;;;4.53;;
52316;SDS011;38725;41.994;21.458;2022-07-23T05:19:26;10.10;;;5.00;;
52316;SDS011;38725;41.994;21.458;2022-07-23T05:21:52;9.73;;;5.13;;
52316;SDS011;38725;41.994;21.458;2022-07-23T05:24:19;13.73;;;5.20;;
52316;SDS011;38725;41.994;21.458;2022-07-23T05:26:45;9.20;;;5.50;;
52316;SDS011;38725;41.994;21.458;2022-07-23T05:29:11;10.20;;;4.72;;
52316;SDS011;38725;41.994;21.458;2022-07-23T05:31:39;8.35;;;5.50;;
52316;SDS011;38725;41.994;21.458;2022-07-23T05:34:05;11.05;;;5.15;;
52316;SDS011;38725;41.994;21.458;2022-07-23T05:36:31;10.85;;;5.40;;
52316;SDS011;38725;41.994;21.458;2022-07-23T05:38:58;17.63;;;6.10;;
52316;SDS011;38725;41.994;21.458;2022-07-23T05:41:24;11.88;;;5.50;;
52316;SDS011;38725;41.994;21.458;2022-07-23T05:43:50;10.70;;;5.30;;
52316;SDS011;38725;41.994;21.458;2022-07-23T05:46:16;11.40;;;5.57;;
52316;SDS011;38725;41.994;21.458;2022-07-23T05:48:42;13.27;;;5.57;;
52316;SDS011;38725;41.994;21.458;2022-07-23T05:51:11;9.02;;;5.75;;
52316;SDS011;38725;41.994;21.458;2022-07-23T05:53:37;11.38;;;5.72;;
52316;SDS011;38725;41.994;21.458;2022-07-23T05:56:03;10.27;;;4.80;;
52316;SDS011;38725;41.994;21.458;2022-07-23T05:58:29;12.88;;;5.28;;
52316;SDS011;38725;41.994;21.458;2022-07-23T06:00:56;10.88;;;5.22;;
52316;SDS011;38725;41.994;21.458;2022-07-23T06:03:22;13.00;;;5.40;;
52316;SDS011;38725;41.994;21.458;2022-07-23T06:05:48;10.68;;;5.68;;
52316;SDS011;38725;41.994;21.458;2022-07-23T06:08:14;10.75;;;5.28;;
52316;SDS011;38725;41.994;21.458;2022-07-23T06:10:40;75.85;;;9.55;;
52316;SDS011;38725;41.994;21.458;2022-07-23T06:13:06;18.45;;;5.88;;
52316;SDS011;38725;41.994;21.458;2022-07-23T06:15:32;11.50;;;4.90;;
52316;SDS011;38725;41.994;21.458;2022-07-23T06:17:58;14.07;;;6.18;;
52316;SDS011;38725;41.994;21.458;2022-07-23T06:20:25;13.35;;;6.07;;
52316;SDS011;38725;41.994;21.458;2022-07-23T06:22:51;12.35;;;6.10;;
52316;SDS011;38725;41.994;21.458;2022-07-23T06:25:17;15.65;;;5.70;;
52316;SDS011;38725;41.994;21.458;2022-07-23T06:27:45;12.40;;;6.15;;
52316;SDS011;38725;41.994;21.458;2022-07-23T06:30:11;10.98;;;5.97;;
52316;SDS011;38725;41.994;21.458;2022-07-23T06:32:38;12.70;;;6.07;;
52316;SDS011;38725;41.994;21.458;2022-07-23T06:35:04;17.05;;;5.88;;
52316;SDS011;38725;41.994;21.458;2022-07-23T06:37:30;18.20;;;6.68;;
52316;SDS011;38725;41.994;21.458;2022-07-23T06:39:57;13.48;;;5.60;;
52316;SDS011;38725;41.994;21.458;2022-07-23T06:42:23;17.17;;;6.05;;
52316;SDS011;38725;41.994;21.458;2022-07-23T06:44:49;17.25;;;5.75;;
52316;SDS011;38725;41.994;21.458;2022-07-23T06:47:15;12.70;;;6.18;;
52316;SDS011;38725;41.994;21.458;2022-07-23T06:49:42;14.30;;;5.57;;
52316;SDS011;38725;41.994;21.458;2022-07-23T06:52:08;12.27;;;5.88;;
52316;SDS011;38725;41.994;21.458;2022-07-23T06:54:34;12.63;;;5.22;;
52316;SDS011;38725;41.994;21.458;2022-07-23T06:57:00;12.52;;;5.90;;
52316;SDS011;38725;41.994;21.458;2022-07-23T06:59:26;13.88;;;6.68;;
52316;SDS011;38725;41.994;21.458;2022-07-23T07:01:52;15.00;;;5.47;;
52316;SDS011;38725;41.994;21.458;2022-07-23T07:04:18;11.07;;;5.75;;
52316;SDS011;38725;41.994;21.458;2022-07-23T07:06:45;10.70;;;5.63;;
52316;SDS011;38725;41.994;21.458;2022-07-23T07:09:11;9.95;;;5.40;;
52316;SDS011;38725;41.994;21.458;2022-07-23T07:11:39;10.05;;;5.38;;
52316;SDS011;38725;41.994;21.458;2022-07-23T07:14:05;8.95;;;4.80;;
52316;SDS011;38725;41.994;21.458;2022-07-23T07:16:31;10.77;;;5.22;;
52316;SDS011;38725;41.994;21.458;2022-07-23T07:18:57;12.90;;;5.95;;
52316;SDS011;38725;41.994;21.458;2022-07-23T07:21:24;13.77;;;5.53;;
52316;SDS011;38725;41.994;21.458;2022-07-23T07:23:50;13.50;;;5.30;;
52316;SDS011;38725;41.994;21.458;2022-07-23T07:26:16;10.20;;;4.82;;
52316;SDS011;38725;41.994;21.458;2022-07-23T07:28:42;10.48;;;5.40;;
52316;SDS011;38725;41.994;21.458;2022-07-23T07:31:08;9.43;;;4.72;;
52316;SDS011;38725;41.994;21.458;2022-07-23T07:33:34;8.75;;;5.18;;
52316;SDS011;38725;41.994;21.458;2022-07-23T07:36:00;11.80;;;4.95;;
52316;SDS011;38725;41.994;21.458;2022-07-23T07:38:27;8.27;;;4.60;;
52316;SDS011;38725;41.994;21.458;2022-07-23T07:40:53;10.45;;;4.53;;
52316;SDS011;38725;41.994;21.458;2022-07-23T07:43:19;10.75;;;5.03;;
52316;SDS011;38725;41.994;21.458;2022-07-23T07:45:46;9.23;;;4.55;;
52316;SDS011;38725;41.994;21.458;2022-07-23T07:48:12;13.73;;;5.68;;
52316;SDS011;38725;41.994;21.458;2022-07-23T07:50:38;9.95;;;4.70;;
52316;SDS011;38725;41.994;21.458;2022-07-23T07:53:04;9.20;;;4.63;;
52316;SDS011;38725;41.994;21.458;2022-07-23T07:55:31;9.10;;;4.70;;
52316;SDS011;38725;41.994;21.458;2022-07-23T07:57:57;9.55;;;4.53;;
52316;SDS011;38725;41.994;21.458;2022-07-23T08:00:23;13.85;;;4.40;;
52316;SDS011;38725;41.994;21.458;2022-07-23T08:02:50;10.23;;;4.68;;
52316;SDS011;38725;41.994;21.458;2022-07-23T08:05:20;11.40;;;4.85;;
52316;SDS011;38725;41.994;21.458;2022-07-23T08:07:47;8.98;;;4.65;;
52316;SDS011;38725;41.994;21.458;2022-07-23T08:10:13;11.38;;;5.20;;
52316;SDS011;38725;41.994;21.458;2022-07-23T08:12:40;7.53;;;3.90;;
52316;SDS011;38725;41.994;21.458;2022-07-23T08:15:07;10.52;;;5.22;;
52316;SDS011;38725;41.994;21.458;2022-07-23T08:17:34;9.73;;;4.45;;
52316;SDS011;38725;41.994;21.458;2022-07-23T08:20:01;7.10;;;4.25;;
52316;SDS011;38725;41.994;21.458;2022-07-23T08:22:40;9.02;;;4.05;;
52316;SDS011;38725;41.994;21.458;2022-07-23T08:25:07;14.75;;;4.35;;
52316;SDS011;38725;41.994;21.458;2022-07-23T08:27:33;12.38;;;4.68;;
52316;SDS011;38725;41.994;21.458;2022-07-23T08:29:59;8.02;;;3.95;;
52316;SDS011;38725;41.994;21.458;2022-07-23T08:32:25;10.20;;;4.45;;
52316;SDS011;38725;41.994;21.458;2022-07-23T08:34:51;14.55;;;4.18;;
52316;SDS011;38725;41.994;21.458;2022-07-23T08:37:17;12.23;;;4.88;;
52316;SDS011;38725;41.994;21.458;2022-07-23T08:39:43;11.85;;;4.07;;
52316;SDS011;38725;41.994;21.458;2022-07-23T08:42:10;6.72;;;3.90;;
52316;SDS011;38725;41.994;21.458;2022-07-23T08:44:36;16.92;;;4.50;;
52316;SDS011;38725;41.994;21.458;2022-07-23T08:47:04;8.10;;;4.18;;
52316;SDS011;38725;41.994;21.458;2022-07-23T08:49:30;5.47;;;3.80;;
52316;SDS011;38725;41.994;21.458;2022-07-23T08:51:56;13.02;;;4.45;;
52316;SDS011;38725;41.994;21.458;2022-07-23T08:54:22;8.20;;;4.30;;
52316;SDS011;38725;41.994;21.458;2022-07-23T08:56:49;7.85;;;3.90;;
52316;SDS011;38725;41.994;21.458;2022-07-23T08:59:15;8.88;;;4.47;;
52316;SDS011;38725;41.994;21.458;2022-07-23T09:01:41;6.50;;;3.90;;
52316;SDS011;38725;41.994;21.458;2022-07-23T09:04:07;7.65;;;4.60;;
52316;SDS011;38725;41.994;21.458;2022-07-23T09:06:33;12.20;;;4.10;;
52316;SDS011;38725;41.994;21.458;2022-07-23T09:09:00;7.30;;;3.83;;
52316;SDS011;38725;41.994;21.458;2022-07-23T09:11:45;11.35;;;4.22;;
52316;SDS011;38725;41.994;21.458;2022-07-23T09:14:11;95.80;;;9.73;;
52316;SDS011;38725;41.994;21.458;2022-07-23T09:16:38;5.32;;;3.78;;
52316;SDS011;38725;41.994;21.458;2022-07-23T09:19:04;7.18;;;3.90;;
52316;SDS011;38725;41.994;21.458;2022-07-23T09:21:31;6.47;;;3.40;;
52316;SDS011;38725;41.994;21.458;2022-07-23T09:23:59;7.65;;;4.10;;
52316;SDS011;38725;41.994;21.458;2022-07-23T09:26:41;8.10;;;3.75;;
52316;SDS011;38725;41.994;21.458;2022-07-23T09:34:10;6.82;;;4.10;;
52316;SDS011;38725;41.994;21.458;2022-07-23T09:36:37;13.18;;;4.07;;
52316;SDS011;38725;41.994;21.458;2022-07-23T09:39:04;5.40;;;3.60;;
52316;SDS011;38725;41.994;21.458;2022-07-23T09:41:37;4.85;;;3.55;;
52316;SDS011;38725;41.994;21.458;2022-07-23T09:44:07;5.63;;;3.50;;
52316;SDS011;38725;41.994;21.458;2022-07-23T09:46:34;8.18;;;3.53;;
52316;SDS011;38725;41.994;21.458;2022-07-23T09:49:09;6.50;;;3.95;;
52316;SDS011;38725;41.994;21.458;2022-07-23T09:51:55;6.07;;;3.33;;
52316;SDS011;38725;41.994;21.458;2022-07-23T09:54:29;6.47;;;3.70;;
52316;SDS011;38725;41.994;21.458;2022-07-23T09:56:57;6.80;;;3.50;;
52316;SDS011;38725;41.994;21.458;2022-07-23T09:59:25;16.65;;;4.03;;
52316;SDS011;38725;41.994;21.458;2022-07-23T10:01:53;10.88;;;3.60;;
52316;SDS011;38725;41.994;21.458;2022-07-23T10:04:20;5.57;;;3.42;;
52316;SDS011;38725;41.994;21.458;2022-07-23T10:06:47;6.18;;;3.53;;
52316;SDS011;38725;41.994;21.458;2022-07-23T10:09:15;7.68;;;3.42;;
52316;SDS011;38725;41.994;21.458;2022-07-23T10:11:42;5.90;;;3.30;;
52316;SDS011;38725;41.994;21.458;2022-07-23T10:14:08;6.68;;;3.50;;
52316;SDS011;38725;41.994;21.458;2022-07-23T10:16:34;8.00;;;4.30;;
52316;SDS011;38725;41.994;21.458;2022-07-23T10:19:01;7.55;;;3.72;;
52316;SDS011;38725;41.994;21.458;2022-07-23T10:21:39;8.60;;;3.78;;
52316;SDS011;38725;41.994;21.458;2022-07-23T10:32:00;8.90;;;3.60;;
52316;SDS011;38725;41.994;21.458;2022-07-23T10:39:42;7.45;;;3.42;;
52316;SDS011;38725;41.994;21.458;2022-07-23T10:42:12;6.32;;;3.33;;
52316;SDS011;38725;41.994;21.458;2022-07-23T10:44:43;8.00;;;3.67;;
52316;SDS011;38725;41.994;21.458;2022-07-23T10:47:10;4.53;;;2.95;;
52316;SDS011;38725;41.994;21.458;2022-07-23T10:50:13;7.32;;;3.67;;
52316;SDS011;38725;41.994;21.458;2022-07-23T10:52:41;7.90;;;3.45;;
52316;SDS011;38725;41.994;21.458;2022-07-23T10:57:46;5.72;;;3.53;;
52316;SDS011;38725;41.994;21.458;2022-07-23T11:00:13;10.23;;;3.33;;
52316;SDS011;38725;41.994;21.458;2022-07-23T11:02:41;8.60;;;3.38;;
52316;SDS011;38725;41.994;21.458;2022-07-23T11:05:11;8.95;;;3.65;;
52316;SDS011;38725;41.994;21.458;2022-07-23T11:23:58;8.38;;;3.15;;
52316;SDS011;38725;41.994;21.458;2022-07-23T11:34:46;9.10;;;3.30;;
52316;SDS011;38725;41.994;21.458;2022-07-23T11:37:33;9.45;;;3.47;;
52316;SDS011;38725;41.994;21.458;2022-07-23T11:40:00;7.70;;;3.20;;
52316;SDS011;38725;41.994;21.458;2022-07-23T11:42:27;8.38;;;3.42;;
52316;SDS011;38725;41.994;21.458;2022-07-23T11:44:53;8.10;;;3.10;;
52316;SDS011;38725;41.994;21.458;2022-07-23T11:47:25;5.35;;;3.42;;
52316;SDS011;38725;41.994;21.458;2022-07-23T11:49:53;10.82;;;3.80;;
52316;SDS011;38725;41.994;21.458;2022-07-23T11:52:19;6.22;;;3.13;;
52316;SDS011;38725;41.994;21.458;2022-07-23T11:54:53;5.38;;;3.72;;
52316;SDS011;38725;41.994;21.458;2022-07-23T11:57:20;7.22;;;3.50;;
52316;SDS011;38725;41.994;21.458;2022-07-23T11:59:47;9.20;;;3.88;;
52316;SDS011;38725;41.994;21.458;2022-07-23T12:02:16;8.20;;;3.42;;
52316;SDS011;38725;41.994;21.458;2022-07-23T12:04:43;5.43;;;3.08;;
52316;SDS011;38725;41.994;21.458;2022-07-23T12:09:54;9.90;;;3.22;;
52316;SDS011;38725;41.994;21.458;2022-07-23T12:12:21;77.18;;;7.60;;
52316;SDS011;38725;41.994;21.458;2022-07-23T12:14:51;6.53;;;3.15;;
52316;SDS011;38725;41.994;21.458;2022-07-23T12:17:18;6.28;;;3.40;;
52316;SDS011;38725;41.994;21.458;2022-07-23T12:19:45;6.18;;;3.40;;
52316;SDS011;38725;41.994;21.458;2022-07-23T12:22:11;7.10;;;3.42;;
52316;SDS011;38725;41.994;21.458;2022-07-23T12:25:02;7.85;;;3.00;;
52316;SDS011;38725;41.994;21.458;2022-07-23T12:27:29;8.38;;;3.60;;
52316;SDS011;38725;41.994;21.458;2022-07-23T12:29:55;10.05;;;3.10;;
52316;SDS011;38725;41.994;21.458;2022-07-23T12:32:26;9.80;;;3.25;;
52316;SDS011;38725;41.994;21.458;2022-07-23T12:35:05;8.52;;;3.42;;
52316;SDS011;38725;41.994;21.458;2022-07-23T12:37:36;10.35;;;3.25;;
52316;SDS011;38725;41.994;21.458;2022-07-23T12:42:50;8.48;;;3.03;;
52316;SDS011;38725;41.994;21.458;2022-07-23T12:45:18;6.70;;;2.70;;
52316;SDS011;38725;41.994;21.458;2022-07-23T12:47:54;8.85;;;3.60;;
52316;SDS011;38725;41.994;21.458;2022-07-23T12:51:22;10.43;;;3.25;;
52316;SDS011;38725;41.994;21.458;2022-07-23T12:53:17;8.55;;;3.97;;
52316;SDS011;38725;41.994;21.458;2022-07-23T12:55:44;7.90;;;3.17;;
52316;SDS011;38725;41.994;21.458;2022-07-23T12:58:15;13.90;;;3.95;;
52316;SDS011;38725;41.994;21.458;2022-07-23T13:01:01;9.05;;;3.60;;
52316;SDS011;38725;41.994;21.458;2022-07-23T13:03:38;11.50;;;3.70;;
52316;SDS011;38725;41.994;21.458;2022-07-23T13:06:05;12.23;;;3.35;;
52316;SDS011;38725;41.994;21.458;2022-07-23T13:08:32;13.18;;;3.13;;
52316;SDS011;38725;41.994;21.458;2022-07-23T13:10:59;13.07;;;3.20;;
52316;SDS011;38725;41.994;21.458;2022-07-23T13:13:27;8.55;;;2.70;;
52316;SDS011;38725;41.994;21.458;2022-07-23T13:15:53;7.25;;;2.70;;
52316;SDS011;38725;41.994;21.458;2022-07-23T13:18:20;8.82;;;3.50;;
52316;SDS011;38725;41.994;21.458;2022-07-23T13:20:46;8.73;;;3.60;;
52316;SDS011;38725;41.994;21.458;2022-07-23T13:23:13;12.30;;;3.10;;
52316;SDS011;38725;41.994;21.458;2022-07-23T13:25:40;7.78;;;3.47;;
52316;SDS011;38725;41.994;21.458;2022-07-23T13:28:06;9.20;;;3.65;;
52316;SDS011;38725;41.994;21.458;2022-07-23T13:30:32;10.68;;;3.60;;
52316;SDS011;38725;41.994;21.458;2022-07-23T13:33:11;9.30;;;3.30;;
52316;SDS011;38725;41.994;21.458;2022-07-23T13:35:37;9.25;;;3.53;;
52316;SDS011;38725;41.994;21.458;2022-07-23T13:38:04;15.55;;;3.50;;
52316;SDS011;38725;41.994;21.458;2022-07-23T13:40:33;29.42;;;4.60;;
52316;SDS011;38725;41.994;21.458;2022-07-23T13:42:59;7.47;;;3.50;;
52316;SDS011;38725;41.994;21.458;2022-07-23T13:45:25;9.85;;;4.07;;
52316;SDS011;38725;41.994;21.458;2022-07-23T13:47:52;14.20;;;3.53;;
52316;SDS011;38725;41.994;21.458;2022-07-23T13:50:18;6.38;;;3.50;;
52316;SDS011;38725;41.994;21.458;2022-07-23T13:52:44;13.40;;;3.40;;
52316;SDS011;38725;41.994;21.458;2022-07-23T13:55:12;7.57;;;3.30;;
52316;SDS011;38725;41.994;21.458;2022-07-23T13:57:38;7.28;;;3.65;;
52316;SDS011;38725;41.994;21.458;2022-07-23T14:00:05;8.30;;;3.65;;
52316;SDS011;38725;41.994;21.458;2022-07-23T14:02:32;6.28;;;3.25;;
52316;SDS011;38725;41.994;21.458;2022-07-23T14:04:59;8.68;;;3.90;;
52316;SDS011;38725;41.994;21.458;2022-07-23T14:07:25;8.20;;;4.50;;
52316;SDS011;38725;41.994;21.458;2022-07-23T14:09:51;17.13;;;5.65;;
52316;SDS011;38725;41.994;21.458;2022-07-23T14:12:17;8.20;;;3.72;;
52316;SDS011;38725;41.994;21.458;2022-07-23T14:14:44;12.82;;;5.97;;
52316;SDS011;38725;41.994;21.458;2022-07-23T14:17:10;7.75;;;3.90;;
52316;SDS011;38725;41.994;21.458;2022-07-23T14:19:36;12.00;;;4.03;;
52316;SDS011;38725;41.994;21.458;2022-07-23T14:22:02;13.05;;;4.30;;
52316;SDS011;38725;41.994;21.458;2022-07-23T14:24:28;9.27;;;4.35;;
52316;SDS011;38725;41.994;21.458;2022-07-23T14:26:55;11.10;;;4.15;;
52316;SDS011;38725;41.994;21.458;2022-07-23T14:29:21;5.35;;;3.45;;
52316;SDS011;38725;41.994;21.458;2022-07-23T14:31:47;6.38;;;3.25;;
52316;SDS011;38725;41.994;21.458;2022-07-23T14:34:13;12.60;;;4.28;;
52316;SDS011;38725;41.994;21.458;2022-07-23T14:36:40;8.45;;;4.05;;
52316;SDS011;38725;41.994;21.458;2022-07-23T14:39:06;7.30;;;3.40;;
52316;SDS011;38725;41.994;21.458;2022-07-23T14:41:33;8.90;;;3.22;;
52316;SDS011;38725;41.994;21.458;2022-07-23T14:44:00;8.52;;;3.50;;
52316;SDS011;38725;41.994;21.458;2022-07-23T14:46:26;9.18;;;3.90;;
52316;SDS011;38725;41.994;21.458;2022-07-23T14:48:53;6.25;;;3.53;;
52316;SDS011;38725;41.994;21.458;2022-07-23T14:51:19;11.25;;;4.55;;
52316;SDS011;38725;41.994;21.458;2022-07-23T14:53:45;10.68;;;3.95;;
52316;SDS011;38725;41.994;21.458;2022-07-23T14:56:11;8.45;;;3.63;;
52316;SDS011;38725;41.994;21.458;2022-07-23T14:58:38;9.30;;;3.72;;
52316;SDS011;38725;41.994;21.458;2022-07-23T15:01:05;10.40;;;4.03;;
52316;SDS011;38725;41.994;21.458;2022-07-23T15:03:31;4.97;;;3.60;;
52316;SDS011;38725;41.994;21.458;2022-07-23T15:05:58;6.93;;;3.75;;
52316;SDS011;38725;41.994;21.458;2022-07-23T15:08:24;9.38;;;5.13;;
52316;SDS011;38725;41.994;21.458;2022-07-23T15:10:50;12.57;;;4.70;;
52316;SDS011;38725;41.994;21.458;2022-07-23T15:13:17;8.20;;;3.97;;
52316;SDS011;38725;41.994;21.458;2022-07-23T15:15:43;7.60;;;3.53;;
52316;SDS011;38725;41.994;21.458;2022-07-23T15:18:10;5.50;;;3.58;;
52316;SDS011;38725;41.994;21.458;2022-07-23T15:20:36;7.93;;;4.10;;